Time;durP1;ratioP1;P1;durP2;ratioP2;P2;SDS_P1;SDS_P2;PMS_P1;PMS_P2;Temp;Humidity;BMP_temperature;BMP_pressure;BME280_temperature;BME280_humidity;BME280_pressure;Samples;Min_cycle;Max_cycle;Signal;HPM_P1;HPM_P2
2022/01/03 00:02:17;;;;;;;4.30;1.30;;;;;;;15.15;51.98;100841.59;5019814;28;20121;-70
2022/01/03 00:04:45;;;;;;;6.18;1.42;;;;;;;15.18;52.10;100854.16;5022634;28;20053;-70
2022/01/03 00:07:14;;;;;;;6.53;1.50;;;;;;;15.18;51.79;100840.47;5021922;28;20041;-70
2022/01/03 00:09:41;;;;;;;5.40;1.52;;;;;;;15.19;51.84;100850.41;5023708;28;20480;-70
2022/01/03 00:12:08;;;;;;;7.97;1.80;;;;;;;15.18;51.46;100855.00;5018771;28;20478;-70
2022/01/03 00:14:35;;;;;;;6.57;2.17;;;;;;;15.18;51.78;100859.63;5023047;28;20053;-70
2022/01/03 00:17:02;;;;;;;6.00;1.52;;;;;;;15.14;51.72;100855.41;5025342;28;20045;-70
2022/01/03 00:19:29;;;;;;;6.78;1.50;;;;;;;15.13;51.58;100854.56;5022962;28;20047;-70
2022/01/03 00:21:58;;;;;;;7.88;1.52;;;;;;;15.16;51.31;100837.88;5017313;28;20049;-70
2022/01/03 00:24:31;;;;;;;9.77;2.00;;;;;;;15.14;51.42;100848.09;5024492;28;20132;-70
2022/01/03 00:27:04;;;;;;;6.22;1.80;;;;;;;15.15;51.30;100851.69;5017854;28;20091;-70
2022/01/03 00:29:42;;;;;;;6.65;1.27;;;;;;;15.13;51.13;100857.28;5015085;28;20120;-70
2022/01/03 00:32:10;;;;;;;5.28;1.30;;;;;;;15.12;51.46;100852.81;5024860;28;20045;-70
2022/01/03 00:34:38;;;;;;;8.07;1.60;;;;;;;15.11;51.07;100851.06;5026107;28;20566;-70
2022/01/03 00:37:09;;;;;;;5.82;2.00;;;;;;;15.11;51.01;100863.88;5020908;28;20125;-70
2022/01/03 00:39:36;;;;;;;6.70;1.90;;;;;;;15.05;51.25;100851.59;5025626;28;20057;-70
2022/01/03 00:42:04;;;;;;;6.95;1.90;;;;;;;15.08;51.34;100864.13;5025066;28;20046;-70
2022/01/03 00:44:31;;;;;;;5.85;1.60;;;;;;;15.07;51.24;100874.19;5019404;28;20323;-70
2022/01/03 00:46:58;;;;;;;5.25;1.52;;;;;;;15.03;51.31;100859.06;5024277;28;20147;-70
2022/01/03 00:49:25;;;;;;;5.85;1.40;;;;;;;15.04;51.50;100873.59;5026556;28;20038;-70
2022/01/03 00:51:52;;;;;;;5.55;1.50;;;;;;;15.04;51.34;100887.28;5019692;28;20128;-70
2022/01/03 00:54:18;;;;;;;6.03;1.67;;;;;;;15.02;51.51;100871.00;5010310;28;20511;-70
2022/01/03 00:56:48;;;;;;;6.35;1.80;;;;;;;15.04;51.22;100877.22;5018170;28;20776;-70
2022/01/03 00:59:32;;;;;;;9.50;1.90;;;;;;;15.05;51.12;100886.28;5022231;28;20045;-70
2022/01/03 01:02:01;;;;;;;5.78;1.55;;;;;;;15.03;51.07;100878.22;5025051;28;20048;-71
2022/01/03 01:04:28;;;;;;;6.15;1.63;;;;;;;15.02;51.14;100889.28;5017872;28;20339;-70
2022/01/03 01:06:57;;;;;;;6.43;1.65;;;;;;;15.02;51.41;100886.53;5022639;28;20507;-70
2022/01/03 01:09:26;;;;;;;7.32;1.80;;;;;;;15.01;51.20;100884.78;5015127;28;20047;-70
2022/01/03 01:11:57;;;;;;;6.72;1.70;;;;;;;15.03;51.03;100894.63;5012485;28;20128;-70
2022/01/03 01:14:27;;;;;;;7.47;1.50;;;;;;;15.02;51.06;100890.13;5021243;28;20140;-70
2022/01/03 01:16:54;;;;;;;6.90;1.65;;;;;;;15.01;51.22;100882.06;5018952;28;20515;-70
2022/01/03 01:19:22;;;;;;;5.63;1.73;;;;;;;15.00;51.13;100894.88;5017374;28;20049;-70
2022/01/03 01:21:51;;;;;;;5.53;1.35;;;;;;;14.99;51.38;100893.13;5024034;28;20515;-70
2022/01/03 01:24:21;;;;;;;5.72;1.52;;;;;;;15.00;51.47;100894.00;5020207;28;20461;-71
2022/01/03 01:29:36;;;;;;;7.30;1.73;;;;;;;14.99;51.43;100889.56;5021673;28;20061;-70
2022/01/03 01:32:04;;;;;;;6.25;1.77;;;;;;;14.97;51.48;100905.22;5021189;28;20449;-70
2022/01/03 01:34:34;;;;;;;6.45;1.58;;;;;;;15.01;51.08;100913.00;5022850;28;20049;-71
2022/01/03 01:37:01;;;;;;;5.60;1.95;;;;;;;15.02;50.84;100911.16;5021067;28;20073;-69
2022/01/03 01:39:30;;;;;;;5.60;1.52;;;;;;;15.00;51.09;100904.94;5020768;28;20123;-69
2022/01/03 01:42:00;;;;;;;6.13;1.73;;;;;;;15.00;51.05;100904.94;5022774;28;20479;-70
2022/01/03 01:44:30;;;;;;;5.15;1.50;;;;;;;14.99;50.94;100919.63;5024620;28;20077;-70
2022/01/03 01:47:02;;;;;;;8.00;1.52;;;;;;;15.01;51.26;100926.69;5024376;28;20056;-70
2022/01/03 01:49:38;;;;;;;8.20;1.80;;;;;;;15.01;51.07;100929.41;5019572;28;20041;-70
2022/01/03 01:52:15;;;;;;;7.47;2.13;;;;;;;15.02;50.83;100920.22;5017092;28;20052;-70
2022/01/03 01:54:53;;;;;;;5.57;1.40;;;;;;;15.01;51.18;100917.59;5012444;28;20124;-69
2022/01/03 01:57:20;;;;;;;7.15;1.48;;;;;;;15.00;50.67;100924.94;5016761;28;20137;-69
2022/01/03 02:00:25;;;;;;;6.53;1.40;;;;;;;15.03;51.07;100924.69;5015753;28;20053;-69
2022/01/03 02:03:36;;;;;;;8.80;2.00;;;;;;;15.00;50.59;100924.06;5018163;28;20525;-69
2022/01/03 02:06:15;;;;;;;6.40;1.60;;;;;;;15.01;50.79;100929.41;5017259;28;20045;-70
2022/01/03 02:09:01;;;;;;;7.80;1.50;;;;;;;15.00;50.58;100924.94;5021283;28;20129;-69
2022/01/03 02:11:56;;;;;;;5.57;1.48;;;;;;;14.99;50.83;100930.56;5022849;28;20048;-70
2022/01/03 02:14:25;;;;;;;7.18;1.67;;;;;;;14.98;51.04;100926.09;5018924;28;20045;-69
2022/01/03 02:16:53;;;;;;;5.35;1.65;;;;;;;14.99;50.89;100927.81;5026927;28;20048;-70
2022/01/03 02:19:20;;;;;;;7.15;1.75;;;;;;;14.99;51.00;100930.56;5008746;28;20044;-70
2022/01/03 02:21:47;;;;;;;4.13;1.80;;;;;;;14.96;50.65;100934.41;5019509;28;20059;-70
2022/01/03 02:24:14;;;;;;;7.88;1.98;;;;;;;14.95;50.75;100934.53;5020111;28;20065;-70
2022/01/03 02:26:40;;;;;;;6.20;1.80;;;;;;;14.95;50.66;100937.28;5021787;28;20128;-70
2022/01/03 02:29:07;;;;;;;5.82;1.50;;;;;;;14.95;50.71;100932.66;5021826;28;20230;-70
2022/01/03 02:31:35;;;;;;;6.55;1.60;;;;;;;14.95;50.60;100937.28;5021822;28;20137;-70
2022/01/03 02:34:03;;;;;;;8.63;1.85;;;;;;;14.96;50.53;100922.59;5016279;28;20054;-70
2022/01/03 02:36:31;;;;;;;8.65;1.73;;;;;;;14.95;50.71;100931.81;5021966;28;20108;-70
2022/01/03 02:38:57;;;;;;;5.85;1.80;;;;;;;14.94;50.83;100924.59;5018789;28;20129;-70
2022/01/03 02:41:24;;;;;;;9.13;1.70;;;;;;;14.91;50.58;100928.44;5025610;28;20525;-70
2022/01/03 02:43:51;;;;;;;5.22;1.65;;;;;;;14.94;50.48;100920.00;5024272;28;20125;-70
2022/01/03 02:46:18;;;;;;;6.00;1.70;;;;;;;14.93;50.83;100915.53;5021348;28;20061;-70
2022/01/03 02:48:45;;;;;;;6.90;1.75;;;;;;;14.92;50.35;100911.03;5035796;28;20095;-70
2022/01/03 02:51:12;;;;;;;5.35;1.50;;;;;;;14.93;50.63;100914.66;5021910;28;20072;-70
2022/01/03 02:53:40;;;;;;;8.38;1.52;;;;;;;14.92;50.33;100916.50;5026639;28;20136;-71
2022/01/03 02:56:07;;;;;;;7.53;1.60;;;;;;;14.93;50.51;100912.78;5018167;28;20425;-70
2022/01/03 02:58:33;;;;;;;6.40;1.67;;;;;;;14.90;50.21;100918.53;5025575;28;20045;-70
2022/01/03 03:01:00;;;;;;;6.20;1.63;;;;;;;14.88;50.04;100920.50;5024540;28;20042;-70
2022/01/03 03:03:27;;;;;;;4.78;1.42;;;;;;;14.88;50.43;100919.66;5018575;28;20530;-70
2022/01/03 03:05:53;;;;;;;8.38;1.67;;;;;;;14.86;50.09;100914.31;5024522;28;20125;-70
2022/01/03 03:08:20;;;;;;;7.15;1.60;;;;;;;14.83;50.57;100909.06;5020637;28;20129;-70
2022/01/03 03:10:46;;;;;;;6.15;1.55;;;;;;;14.83;50.27;100915.41;5018455;28;20053;-70
2022/01/03 03:13:14;;;;;;;7.40;1.88;;;;;;;14.82;50.38;100918.31;5017467;28;20124;-70
2022/01/03 03:15:40;;;;;;;6.13;1.60;;;;;;;14.79;50.42;100919.41;5024435;28;20491;-70
2022/01/03 03:18:09;;;;;;;6.20;1.60;;;;;;;14.80;50.33;100912.97;5017387;28;20050;-70
2022/01/03 03:20:37;;;;;;;8.40;1.65;;;;;;;14.81;50.06;100925.63;5027441;28;20144;-70
2022/01/03 03:23:04;;;;;;;7.75;1.85;;;;;;;14.78;50.45;100931.34;5018717;28;20049;-70
2022/01/03 03:25:34;;;;;;;7.60;2.03;;;;;;;14.77;50.06;100926.88;5024828;28;20689;-70
2022/01/03 03:28:09;;;;;;;6.38;1.67;;;;;;;14.78;50.06;100914.94;5027047;28;20075;-70
2022/01/03 03:30:44;;;;;;;4.80;1.30;;;;;;;14.75;50.59;100922.53;5019764;28;20132;-70
2022/01/03 03:33:12;;;;;;;3.97;1.48;;;;;;;14.74;50.29;100926.28;5022247;28;20049;-71
2022/01/03 03:35:40;;;;;;;8.82;2.13;;;;;;;14.74;50.18;100929.00;5020870;28;20173;-71
2022/01/03 03:38:07;;;;;;;6.93;1.42;;;;;;;14.73;50.44;100921.81;5027560;28;20128;-71
2022/01/03 03:40:33;;;;;;;6.28;1.33;;;;;;;14.74;50.21;100918.06;5016292;28;20081;-71
2022/01/03 03:43:00;;;;;;;7.20;1.55;;;;;;;14.73;50.35;100938.19;5023171;28;20124;-70
2022/01/03 03:45:27;;;;;;;7.07;2.58;;;;;;;14.74;50.35;100918.91;5014738;28;20548;-71
2022/01/03 03:47:54;;;;;;;4.18;1.50;;;;;;;14.69;50.08;100931.25;5025508;28;20804;-71
2022/01/03 03:50:20;;;;;;;7.70;2.10;;;;;;;14.70;49.84;100930.25;5022976;28;20594;-71
2022/01/03 03:52:52;;;;;;;6.00;1.55;;;;;;;14.65;50.33;100927.91;5013165;28;20045;-71
2022/01/03 03:55:19;;;;;;;7.63;1.50;;;;;;;14.64;50.45;100923.44;5023571;28;20132;-70
2022/01/03 03:57:46;;;;;;;4.47;1.50;;;;;;;14.65;50.27;100940.69;5024302;28;20052;-71
2022/01/03 04:00:15;;;;;;;5.03;1.30;;;;;;;14.63;50.35;100929.88;5020130;28;20121;-71
2022/01/03 04:02:42;;;;;;;5.93;1.58;;;;;;;14.63;50.20;100924.41;5023501;28;20113;-70
2022/01/03 04:05:09;;;;;;;5.65;1.55;;;;;;;14.62;50.12;100938.22;5019596;28;20046;-71
2022/01/03 04:07:36;;;;;;;8.15;1.48;;;;;;;14.60;50.38;100932.00;5017855;28;20077;-71
2022/01/03 04:10:05;;;;;;;5.82;1.45;;;;;;;14.60;50.31;100930.13;5025640;28;20436;-70
2022/01/03 04:12:32;;;;;;;4.57;1.60;;;;;;;14.58;50.34;100925.78;5013676;28;20080;-71
2022/01/03 04:14:58;;;;;;;6.53;1.55;;;;;;;14.56;50.73;100923.19;5028075;28;20045;-71
2022/01/03 04:17:25;;;;;;;6.45;1.50;;;;;;;14.59;50.46;100924.78;5021286;28;20422;-71
2022/01/03 04:19:52;;;;;;;7.22;1.60;;;;;;;14.57;50.45;100929.53;5020610;28;20470;-70
2022/01/03 04:22:18;;;;;;;5.72;1.50;;;;;;;14.56;50.69;100925.94;5010296;28;20458;-71
2022/01/03 04:24:45;;;;;;;8.07;2.05;;;;;;;14.58;50.47;100923.91;5020001;28;20052;-71
2022/01/03 04:27:11;;;;;;;5.38;1.50;;;;;;;14.57;50.41;100924.94;5018896;28;20418;-71
2022/01/03 04:29:38;;;;;;;6.05;1.50;;;;;;;14.57;50.47;100924.94;5022198;28;20045;-71
2022/01/03 04:32:05;;;;;;;5.53;1.50;;;;;;;14.59;50.77;100927.53;5021965;28;20337;-71
2022/01/03 04:34:31;;;;;;;6.28;1.73;;;;;;;14.58;50.66;100918.44;5015155;28;20140;-70
2022/01/03 04:36:59;;;;;;;6.55;1.60;;;;;;;14.58;50.40;100918.44;5018663;28;20567;-71
2022/01/03 04:39:25;;;;;;;6.95;2.05;;;;;;;14.60;50.45;100918.31;5020152;28;20128;-71
2022/01/03 04:41:52;;;;;;;4.32;1.50;;;;;;;14.61;50.13;100926.41;5025334;28;20132;-71
2022/01/03 04:44:18;;;;;;;9.80;2.10;;;;;;;14.61;50.52;100920.94;5026832;28;20530;-71
2022/01/03 04:46:45;;;;;;;5.63;1.38;;;;;;;14.58;50.22;100915.72;5022657;28;20045;-71
2022/01/03 04:49:12;;;;;;;5.90;1.60;;;;;;;14.59;50.16;100908.38;5021223;28;20145;-71
2022/01/03 04:51:39;;;;;;;5.93;1.23;;;;;;;14.59;50.47;100906.53;5020037;28;20473;-71
2022/01/03 04:54:06;;;;;;;4.07;1.35;;;;;;;14.60;50.07;100901.94;5017506;28;20073;-71
2022/01/03 04:56:35;;;;;;;5.22;1.67;;;;;;;14.61;50.11;100909.13;5021903;28;20049;-71
2022/01/03 04:59:03;;;;;;;5.50;1.35;;;;;;;14.62;50.27;100902.69;5011161;28;20045;-71
2022/01/03 05:01:29;;;;;;;7.20;1.52;;;;;;;14.62;50.21;100894.50;5025066;28;20041;-71
2022/01/03 05:03:56;;;;;;;10.32;2.33;;;;;;;14.60;50.05;100901.94;5023720;28;20053;-70
2022/01/03 05:06:23;;;;;;;5.72;1.83;;;;;;;14.61;49.74;100903.69;5017307;28;20059;-71
2022/01/03 05:08:50;;;;;;;4.07;1.30;;;;;;;14.58;50.04;100910.25;5019443;28;20080;-71
2022/01/03 05:11:16;;;;;;;7.15;1.55;;;;;;;14.58;50.06;100901.19;5012917;28;20336;-71
2022/01/03 05:13:43;;;;;;;5.65;1.48;;;;;;;14.58;50.04;100910.25;5020188;28;20046;-71
2022/01/03 05:16:10;;;;;;;4.53;1.38;;;;;;;14.57;50.20;100919.47;5020448;28;20045;-71
2022/01/03 05:18:36;;;;;;;6.25;1.30;;;;;;;14.58;50.08;100902.06;5018219;28;20410;-71
2022/01/03 05:21:04;;;;;;;5.22;1.60;;;;;;;14.58;49.94;100915.72;5024082;28;20041;-71
2022/01/03 05:23:30;;;;;;;4.78;1.50;;;;;;;14.58;49.62;100917.56;5024131;28;20542;-71
2022/01/03 05:25:57;;;;;;;5.03;1.40;;;;;;;14.56;50.15;100916.88;5015606;28;20526;-71
2022/01/03 05:28:24;;;;;;;6.15;1.58;;;;;;;14.57;50.21;100914.00;5023764;28;20045;-71
2022/01/03 05:30:50;;;;;;;6.57;1.48;;;;;;;14.60;50.00;100912.88;5024758;28;20505;-71
2022/01/03 05:33:17;;;;;;;8.57;2.70;;;;;;;14.59;49.92;100903.78;5024930;28;20116;-71
2022/01/03 05:35:43;;;;;;;8.48;1.75;;;;;;;14.59;50.27;100902.94;5024406;28;20071;-71
2022/01/03 05:38:10;;;;;;;4.25;1.45;;;;;;;14.60;49.77;100891.00;5012043;28;20132;-71
2022/01/03 05:40:36;;;;;;;4.63;1.38;;;;;;;14.60;49.97;100897.34;5023463;28;20473;-71
2022/01/03 05:43:03;;;;;;;7.38;1.65;;;;;;;14.61;49.95;100893.63;5017889;28;20065;-71
2022/01/03 05:45:30;;;;;;;4.85;1.55;;;;;;;14.62;50.16;100895.34;5012491;28;20131;-70
2022/01/03 05:47:56;;;;;;;4.95;1.38;;;;;;;14.61;50.39;100895.47;5023455;28;20591;-70
2022/01/03 05:50:24;;;;;;;4.57;1.40;;;;;;;14.61;50.29;100890.88;5013742;28;20079;-71
2022/01/03 05:52:50;;;;;;;6.32;1.42;;;;;;;14.65;50.31;100886.03;5006683;28;20049;-71
2022/01/03 05:55:20;;;;;;;7.15;1.45;;;;;;;14.63;50.28;100877.09;5009969;28;20156;-71
2022/01/03 05:57:46;;;;;;;6.15;1.60;;;;;;;14.65;50.10;100877.84;5018160;28;20242;-71
2022/01/03 06:00:16;;;;;;;5.00;1.40;;;;;;;14.68;49.74;100881.16;5025497;28;20133;-71
2022/01/03 06:02:43;;;;;;;5.57;1.80;;;;;;;14.70;49.94;100873.72;5017928;28;20136;-71
2022/01/03 06:05:20;;;;;;;5.80;1.73;;;;;;;14.69;50.02;100871.13;5015570;28;20456;-71
2022/01/03 06:07:47;;;;;;;5.70;1.35;;;;;;;14.69;49.96;100865.66;5014341;28;20401;-70
2022/01/03 06:10:16;;;;;;;6.85;1.80;;;;;;;14.70;49.90;100868.25;5016936;28;20121;-71
2022/01/03 06:12:45;;;;;;;5.63;1.30;;;;;;;14.69;49.90;100855.59;5014335;28;20499;-71
2022/01/03 06:15:15;;;;;;;6.82;1.80;;;;;;;14.68;49.87;100859.31;5022664;28;20081;-71
2022/01/03 06:17:44;;;;;;;8.60;1.70;;;;;;;14.69;49.41;100863.78;5021735;28;20522;-71
2022/01/03 06:20:11;;;;;;;6.10;1.73;;;;;;;14.65;50.19;100862.31;5019990;28;20518;-71
2022/01/03 06:22:40;;;;;;;6.60;1.85;;;;;;;14.69;49.99;100854.72;5026693;28;20128;-71
2022/01/03 06:25:08;;;;;;;8.00;1.90;;;;;;;14.66;49.80;100860.47;5012190;28;20076;-71
2022/01/03 06:27:36;;;;;;;5.97;1.85;;;;;;;14.69;49.56;100861.06;5015569;28;20129;-71
2022/01/03 06:30:04;;;;;;;6.22;1.80;;;;;;;14.69;50.02;100860.19;5006942;28;20454;-71
2022/01/03 06:32:31;;;;;;;6.43;1.65;;;;;;;14.66;50.00;100861.28;5015653;28;20535;-71
2022/01/03 06:34:57;;;;;;;6.90;1.80;;;;;;;14.68;49.82;100853.84;5013475;28;20208;-71
2022/01/03 06:37:24;;;;;;;6.45;1.77;;;;;;;14.70;49.98;100861.91;5022999;28;20042;-70
2022/01/03 06:39:50;;;;;;;8.85;2.00;;;;;;;14.69;50.22;100850.13;5014485;28;20136;-72
2022/01/03 06:42:17;;;;;;;7.57;1.98;;;;;;;14.69;49.78;100852.84;5021844;28;20132;-71
2022/01/03 06:44:45;;;;;;;8.57;2.15;;;;;;;14.72;49.74;100852.59;5026278;28;20507;-72
2022/01/03 06:47:12;;;;;;;8.70;2.20;;;;;;;14.75;49.63;100854.19;5025884;28;20507;-71
2022/01/03 06:49:38;;;;;;;5.47;1.73;;;;;;;14.74;49.63;100860.69;5017318;28;20056;-71
2022/01/03 06:52:05;;;;;;;6.50;1.80;;;;;;;14.72;49.66;100852.59;5027147;28;20049;-71
2022/01/03 06:54:33;;;;;;;6.47;2.40;;;;;;;14.70;50.04;100857.31;5027743;28;20554;-71
2022/01/03 06:57:00;;;;;;;7.50;2.10;;;;;;;14.74;49.61;100860.69;5017726;28;20068;-71
2022/01/03 06:59:28;;;;;;;5.32;2.35;;;;;;;14.73;49.93;100861.69;5026256;28;20046;-71
2022/01/03 07:01:55;;;;;;;6.45;2.58;;;;;;;14.74;49.77;100866.16;5019513;28;20658;-71
2022/01/03 07:04:21;;;;;;;9.93;2.45;;;;;;;14.74;49.72;100866.97;5015768;28;20416;-72
2022/01/03 07:06:48;;;;;;;5.22;2.00;;;;;;;14.74;49.49;100872.44;5023683;28;20145;-71
2022/01/03 07:09:14;;;;;;;6.75;2.15;;;;;;;14.74;49.60;100863.41;5017069;28;20052;-71
2022/01/03 07:11:41;;;;;;;6.28;2.05;;;;;;;14.72;49.75;100870.88;5024211;28;20479;-71
2022/01/03 07:19:56;;;;;;;9.88;2.45;;;;;;;14.70;49.74;100859.19;5019224;28;20081;-71
2022/01/03 07:22:23;;;;;;;7.47;2.38;;;;;;;14.73;49.29;100856.22;5030053;28;20139;-71
2022/01/03 07:24:52;;;;;;;4.72;1.83;;;;;;;14.72;49.53;100851.75;5044313;28;20088;-71
2022/01/03 07:27:19;;;;;;;8.27;2.53;;;;;;;14.68;49.46;100859.31;5035418;28;20566;-71
2022/01/03 07:29:48;;;;;;;7.13;1.77;;;;;;;14.69;49.75;100846.53;5034475;28;20457;-71
2022/01/03 07:32:15;;;;;;;6.28;1.80;;;;;;;14.69;49.46;100839.19;5033099;28;20128;-71
2022/01/03 07:34:41;;;;;;;4.60;1.48;;;;;;;14.66;49.75;100838.59;5032074;28;20075;-71
2022/01/03 07:37:08;;;;;;;5.50;1.52;;;;;;;14.67;49.38;100849.38;5042802;28;20136;-71
2022/01/03 07:39:35;;;;;;;7.20;1.80;;;;;;;14.68;49.39;100840.19;5044194;28;20049;-71
2022/01/03 07:42:03;;;;;;;4.35;1.50;;;;;;;14.69;49.48;100850.13;5034262;28;20047;-71
2022/01/03 07:44:29;;;;;;;6.45;1.80;;;;;;;14.67;49.82;100853.97;5038084;28;20068;-71
2022/01/03 07:46:57;;;;;;;4.40;1.63;;;;;;;14.68;49.53;100852.97;5047100;28;20503;-71
2022/01/03 07:49:23;;;;;;;4.72;1.38;;;;;;;14.65;49.36;100851.38;5045070;28;20063;-71
2022/01/03 07:51:50;;;;;;;7.00;1.90;;;;;;;14.69;49.34;100843.78;5043533;28;20453;-71
2022/01/03 07:54:17;;;;;;;8.43;2.17;;;;;;;14.67;49.61;100863.03;5038046;28;20132;-71
2022/01/03 07:56:43;;;;;;;5.70;1.77;;;;;;;14.65;49.32;100859.59;5046639;28;20481;-71
2022/01/03 07:59:10;;;;;;;5.95;1.92;;;;;;;14.63;49.58;100855.25;5039121;28;20131;-71
2022/01/03 08:01:40;;;;;;;9.55;1.70;;;;;;;14.65;49.94;100864.19;5040484;28;20050;-71
2022/01/03 08:04:07;;;;;;;5.55;1.70;;;;;;;14.65;49.96;100861.44;5039701;28;20491;-71
2022/01/03 08:06:43;;;;;;;6.22;1.95;;;;;;;14.65;49.84;100864.19;5045032;28;20053;-73
2022/01/03 08:09:10;;;;;;;5.63;1.88;;;;;;;14.65;50.01;100867.78;5036198;28;20041;-71
2022/01/03 08:11:37;;;;;;;4.75;1.58;;;;;;;14.66;49.99;100874.13;5034165;28;20509;-71
2022/01/03 08:14:03;;;;;;;8.35;2.13;;;;;;;14.69;50.05;100873.84;5041329;28;20124;-71
2022/01/03 08:16:30;;;;;;;6.45;1.90;;;;;;;14.71;49.87;100875.47;5033594;28;20466;-71
2022/01/03 08:18:56;;;;;;;5.35;1.58;;;;;;;14.71;49.94;100866.41;5044351;28;20490;-71
2022/01/03 08:21:23;;;;;;;4.00;1.60;;;;;;;14.72;50.01;100874.47;5040086;28;20140;-71
2022/01/03 08:23:51;;;;;;;6.70;1.40;;;;;;;14.73;49.86;100869.88;5041774;28;20487;-71
2022/01/03 08:26:17;;;;;;;7.20;2.00;;;;;;;14.72;49.66;100870.88;5046858;28;20078;-71
2022/01/03 08:28:44;;;;;;;5.18;1.50;;;;;;;14.74;49.74;100869.72;5041540;28;20179;-71
2022/01/03 08:31:11;;;;;;;4.53;1.63;;;;;;;14.74;49.91;100872.44;5032446;28;20136;-71
2022/01/03 08:33:38;;;;;;;4.80;1.48;;;;;;;14.77;49.96;100872.22;5040584;28;20051;-71
2022/01/03 08:36:05;;;;;;;5.75;2.25;;;;;;;14.75;49.89;100871.47;5035921;28;20128;-72
2022/01/03 08:38:32;;;;;;;7.18;1.52;;;;;;;14.78;50.03;100870.34;5041310;28;20049;-70
2022/01/03 08:40:58;;;;;;;4.47;1.50;;;;;;;14.77;50.00;100874.94;5037801;28;20505;-71
2022/01/03 08:43:25;;;;;;;6.03;2.05;;;;;;;14.80;49.75;100871.97;5037955;28;20041;-71
2022/01/03 08:45:51;;;;;;;6.80;1.90;;;;;;;14.80;50.07;100866.50;5043613;28;20475;-71
2022/01/03 08:48:18;;;;;;;4.20;1.60;;;;;;;14.77;50.07;100872.22;5050782;28;20045;-71
2022/01/03 08:50:44;;;;;;;4.35;1.48;;;;;;;14.77;50.25;100864.00;5044957;28;20041;-71
2022/01/03 08:53:12;;;;;;;5.22;1.80;;;;;;;14.78;50.26;100875.81;5046046;28;20139;-71
2022/01/03 08:55:40;;;;;;;7.10;1.70;;;;;;;14.77;50.23;100850.34;5032776;28;20143;-70
2022/01/03 08:58:07;;;;;;;5.75;1.60;;;;;;;14.79;50.81;100851.09;5041960;28;20076;-71
2022/01/03 09:00:34;;;;;;;7.60;2.47;;;;;;;14.82;50.75;100850.81;5033240;28;20483;-71
2022/01/03 09:03:01;;;;;;;6.22;1.70;;;;;;;14.80;50.69;100852.81;5038508;28;20045;-71
2022/01/03 09:05:27;;;;;;;5.25;1.50;;;;;;;14.82;50.58;100860.91;5034950;28;20749;-71
2022/01/03 09:07:54;;;;;;;5.15;1.67;;;;;;;14.83;50.37;100852.56;5039170;28;20064;-71
2022/01/03 09:10:20;;;;;;;6.38;1.73;;;;;;;14.83;50.88;100855.28;5043482;28;20160;-72
2022/01/03 09:12:47;;;;;;;7.97;1.70;;;;;;;14.84;50.70;100854.28;5026323;28;20296;-71
2022/01/03 09:15:14;;;;;;;5.88;2.30;;;;;;;14.87;50.76;100844.09;5044360;28;20045;-71
2022/01/03 09:17:41;;;;;;;7.07;1.90;;;;;;;14.89;50.32;100844.84;5037902;28;20122;-72
2022/01/03 09:20:08;;;;;;;6.03;1.80;;;;;;;14.86;50.40;100845.97;5025601;28;20161;-72
2022/01/03 09:22:40;;;;;;;5.97;1.80;;;;;;;14.88;50.50;100837.63;5034552;28;20533;-72
2022/01/03 09:30:34;;;;;;;8.40;2.10;;;;;;;14.88;50.48;100835.78;5045376;28;20048;-71
2022/01/03 09:33:01;;;;;;;6.47;2.40;;;;;;;14.91;50.48;100843.69;5040682;28;20081;-71
2022/01/03 09:35:28;;;;;;;5.07;1.80;;;;;;;14.93;50.20;100840.84;5043497;28;20107;-71
2022/01/03 09:37:54;;;;;;;7.25;2.28;;;;;;;14.94;50.55;100843.44;5038070;28;20426;-71
2022/01/03 09:40:21;;;;;;;7.07;2.00;;;;;;;14.94;50.49;100848.91;5045627;28;20486;-71
2022/01/03 09:42:51;;;;;;;7.18;1.83;;;;;;;15.00;50.37;100850.25;5038765;28;20076;-71
2022/01/03 09:45:18;;;;;;;5.18;1.60;;;;;;;15.00;50.56;100852.97;5040652;28;20460;-71
2022/01/03 09:47:45;;;;;;;7.22;1.77;;;;;;;15.04;50.38;100843.53;5037369;28;20186;-70
2022/01/03 09:50:14;;;;;;;6.75;1.90;;;;;;;15.09;50.36;100852.19;5044797;28;20045;-70
2022/01/03 09:52:43;;;;;;;5.05;1.80;;;;;;;15.12;49.91;100849.22;5039412;28;20077;-70
2022/01/03 09:55:11;;;;;;;6.97;1.60;;;;;;;15.15;49.95;100847.06;5042444;28;20101;-70
2022/01/03 09:57:39;;;;;;;6.68;1.70;;;;;;;15.18;50.01;100845.94;5033454;28;20046;-70
2022/01/03 10:00:07;;;;;;;8.88;1.98;;;;;;;15.24;49.80;100845.41;5040526;28;20092;-70
2022/01/03 10:02:35;;;;;;;7.07;1.77;;;;;;;15.23;49.82;100843.69;5038652;28;20060;-70
2022/01/03 10:05:02;;;;;;;7.28;1.70;;;;;;;15.27;49.85;100844.28;5038506;28;20564;-72
2022/01/03 10:07:30;;;;;;;5.63;1.80;;;;;;;15.30;49.85;100846.75;5034339;28;20045;-71
2022/01/03 10:09:57;;;;;;;6.88;2.00;;;;;;;15.31;49.81;100852.09;5039708;28;20045;-70
2022/01/03 10:12:23;;;;;;;9.18;1.70;;;;;;;15.35;49.84;100834.41;5040102;28;20075;-70
2022/01/03 10:14:50;;;;;;;9.25;2.03;;;;;;;15.38;49.58;100823.22;5043233;28;20091;-71
2022/01/03 10:17:17;;;;;;;5.43;2.40;;;;;;;15.39;49.55;100837.75;5036392;28;20065;-70
2022/01/03 10:19:54;;;;;;;4.50;1.52;;;;;;;15.46;48.85;100836.22;5045164;28;20052;-71
2022/01/03 10:22:25;;;;;;;6.00;1.90;;;;;;;15.45;49.06;100835.34;5048513;28;20747;-71
2022/01/03 10:24:59;;;;;;;6.83;2.00;;;;;;;15.42;49.29;100827.41;5041723;28;20132;-71
2022/01/03 10:28:04;;;;;;;6.07;1.38;;;;;;;15.43;49.34;100820.94;5032878;28;20307;-71
2022/01/03 10:30:49;;;;;;;8.18;2.00;;;;;;;15.46;48.91;100823.41;5042384;28;20048;-70
2022/01/03 10:33:21;;;;;;;7.53;1.92;;;;;;;15.47;49.19;100819.66;5039599;28;20069;-70
2022/01/03 10:35:55;;;;;;;5.07;1.50;;;;;;;15.49;49.26;100811.28;5047643;28;20538;-70
2022/01/03 10:38:34;;;;;;;6.50;1.67;;;;;;;15.53;48.79;100804.56;5042590;28;20130;-70
2022/01/03 10:41:15;;;;;;;6.60;2.00;;;;;;;15.55;48.86;100806.22;5043602;28;20042;-71
2022/01/03 10:43:50;;;;;;;6.63;1.80;;;;;;;15.54;48.88;100812.69;5034967;28;20045;-70
2022/01/03 10:46:28;;;;;;;5.70;1.70;;;;;;;15.59;48.48;100817.75;5036616;28;20124;-70
2022/01/03 10:49:10;;;;;;;4.75;1.80;;;;;;;15.60;48.39;100800.31;5036438;28;20052;-70
2022/01/03 10:51:37;;;;;;;6.22;1.90;;;;;;;15.55;48.49;100797.13;5043001;28;20045;-70
2022/01/03 10:54:11;;;;;;;4.97;1.48;;;;;;;15.57;48.85;100809.66;5032394;28;20464;-70
2022/01/03 10:56:42;;;;;;;5.70;1.83;;;;;;;15.58;48.55;100808.66;5043871;28;20118;-70
2022/01/03 10:59:14;;;;;;;5.53;1.70;;;;;;;15.56;48.57;100796.13;5045892;28;20141;-71
2022/01/03 11:01:42;;;;;;;7.97;1.80;;;;;;;15.57;48.93;100789.63;5040482;28;20042;-70
2022/01/03 11:04:14;;;;;;;6.38;1.55;;;;;;;15.57;49.05;100801.44;5040940;28;20053;-70
2022/01/03 11:11:55;;;;;;;6.72;1.80;;;;;;;15.62;48.69;100786.50;5045505;28;20106;-70
2022/01/03 11:14:39;;;;;;;5.30;2.10;;;;;;;15.67;48.65;100790.56;5034570;28;20126;-70
2022/01/03 11:17:24;;;;;;;5.32;1.50;;;;;;;15.65;48.53;100794.44;5037423;28;20073;-70
2022/01/03 11:19:51;;;;;;;7.75;2.00;;;;;;;15.68;48.57;100777.72;5032719;28;20084;-70
2022/01/03 11:22:41;;;;;;;5.63;2.00;;;;;;;15.71;48.27;100769.25;5037884;28;20059;-70
2022/01/03 11:25:09;;;;;;;5.95;1.80;;;;;;;15.71;48.56;100775.59;5034153;28;20120;-70
2022/01/03 11:27:40;;;;;;;6.22;1.52;;;;;;;15.70;48.33;100768.41;5043144;28;20092;-70
2022/01/03 11:30:09;;;;;;;8.85;1.65;;;;;;;15.73;48.13;100759.88;5037817;28;20049;-70
2022/01/03 11:32:39;;;;;;;7.20;1.58;;;;;;;15.72;48.44;100760.91;5035543;28;20132;-70
2022/01/03 11:35:06;;;;;;;5.93;1.60;;;;;;;15.72;48.06;100766.41;5033141;28;20076;-70
2022/01/03 11:37:36;;;;;;;5.38;1.80;;;;;;;15.76;47.91;100750.53;5035685;28;20132;-70
2022/01/03 11:40:04;;;;;;;6.28;1.95;;;;;;;15.75;48.00;100735.13;5037526;28;20451;-71
2022/01/03 11:42:35;;;;;;;6.18;1.30;;;;;;;15.75;48.15;100732.38;5037216;28;20476;-70
2022/01/03 11:45:02;;;;;;;5.55;1.92;;;;;;;15.73;48.08;100726.19;5038171;28;20391;-70
2022/01/03 11:47:30;;;;;;;7.00;2.30;;;;;;;15.72;48.18;100717.13;5037150;28;20049;-70
2022/01/03 11:49:57;;;;;;;5.57;1.50;;;;;;;15.74;48.79;100722.44;5034325;28;20132;-70
2022/01/03 11:52:25;;;;;;;6.40;1.55;;;;;;;15.76;48.39;100715.81;5041364;28;20127;-70